Time;durP1;ratioP1;P1;durP2;ratioP2;P2;SDS_P1;SDS_P2;PMS_P1;PMS_P2;Temp;Humidity;BMP_temperature;BMP_pressure;BME280_temperature;BME280_humidity;BME280_pressure;Samples;Min_cycle;Max_cycle;Signal;HPM_P1;HPM_P2
2024/02/23 00:01:11;;;;;;;1.48;0.40;;;;;;;9.15;84.58;96139.13;5162308;23;20614;-86
2024/02/23 00:03:15;;;;;;;1.10;0.30;;;;;;;9.19;84.11;96152.69;5161058;23;20633;-87
2024/02/23 00:05:19;;;;;;;1.97;0.43;;;;;;;9.21;84.33;96141.16;5189096;22;20575;-87
2024/02/23 00:07:22;;;;;;;2.38;0.65;;;;;;;9.21;84.14;96156.75;5136933;23;20643;-86
2024/02/23 00:09:26;;;;;;;2.10;0.50;;;;;;;9.21;84.56;96155.94;5162541;23;20188;-86
2024/02/23 00:11:30;;;;;;;1.35;0.50;;;;;;;9.23;84.82;96172.22;5189834;22;20557;-87
2024/02/23 00:13:35;;;;;;;1.10;0.40;;;;;;;9.21;83.99;96166.34;5162144;23;20178;-87
2024/02/23 00:15:39;;;;;;;3.00;0.30;;;;;;;9.21;84.73;96172.34;5162316;23;21155;-87
2024/02/23 00:17:42;;;;;;;1.33;0.40;;;;;;;9.29;84.88;96171.66;5161717;23;21000;-87
2024/02/23 00:19:46;;;;;;;2.20;0.40;;;;;;;9.18;84.88;96164.03;5162830;23;20618;-86
2024/02/23 00:21:51;;;;;;;1.48;0.40;;;;;;;9.21;84.47;96164.56;5138037;23;20581;-87
2024/02/23 00:23:54;;;;;;;2.37;0.40;;;;;;;9.26;84.29;96159.78;5137897;23;20180;-87
2024/02/23 00:25:58;;;;;;;1.00;0.30;;;;;;;9.29;84.88;96156.03;5162565;23;20611;-87
2024/02/23 00:28:00;;;;;;;1.23;0.40;;;;;;;9.23;84.03;96161.81;5162101;23;20571;-86
2024/02/23 00:30:05;;;;;;;1.20;0.37;;;;;;;9.27;83.75;96155.38;5162067;23;20553;-87
2024/02/23 00:32:09;;;;;;;1.30;0.40;;;;;;;9.13;85.41;96171.47;5137676;23;20588;-87
2024/02/23 00:34:13;;;;;;;1.50;0.47;;;;;;;8.99;85.13;96170.13;5137898;23;20612;-86
2024/02/23 00:36:16;;;;;;;2.15;0.40;;;;;;;8.97;85.62;96187.63;5161423;23;20522;-87
2024/02/23 00:38:19;;;;;;;1.20;0.50;;;;;;;8.90;85.12;96185.78;5189585;22;20172;-87
2024/02/23 00:40:24;;;;;;;2.83;0.50;;;;;;;8.80;85.79;96192.75;5137499;23;20192;-86
2024/02/23 00:42:27;;;;;;;2.15;0.55;;;;;;;8.67;85.71;96194.03;5163397;23;20178;-86
2024/02/23 00:44:30;;;;;;;1.98;0.50;;;;;;;8.61;85.96;96204.97;5162599;23;20242;-87
2024/02/23 00:46:34;;;;;;;3.53;0.57;;;;;;;8.54;87.00;96209.09;5136577;23;20197;-86
2024/02/23 00:48:37;;;;;;;2.35;0.40;;;;;;;8.43;86.74;96205.81;5137039;23;20601;-86
2024/02/23 00:50:41;;;;;;;1.52;0.73;;;;;;;8.41;87.08;96218.13;5137878;23;20188;-86
2024/02/23 00:52:44;;;;;;;2.85;0.90;;;;;;;8.41;88.49;96218.94;5162233;23;20181;-86
2024/02/23 00:54:48;;;;;;;1.20;0.30;;;;;;;8.40;86.71;96211.28;5189361;22;20184;-86
2024/02/23 00:56:51;;;;;;;2.05;0.50;;;;;;;8.35;87.10;96203.91;5188124;22;20193;-86
2024/02/23 00:58:58;;;;;;;2.55;0.50;;;;;;;8.33;87.31;96199.78;5135904;23;20170;-86
2024/02/23 01:01:01;;;;;;;1.52;0.50;;;;;;;8.31;87.01;96199.94;5137203;23;20174;-86
2024/02/23 01:03:05;;;;;;;1.70;0.55;;;;;;;8.22;88.11;96200.75;5162506;23;20205;-84
2024/02/23 01:05:09;;;;;;;2.90;0.57;;;;;;;8.14;87.87;96207.59;5137932;23;20614;-86
2024/02/23 01:07:13;;;;;;;1.33;0.57;;;;;;;8.15;87.96;96204.06;5188243;22;20566;-86
2024/02/23 01:09:20;;;;;;;2.53;0.50;;;;;;;8.08;88.04;96211.53;5162170;23;20265;-86
2024/02/23 01:11:23;;;;;;;2.00;0.77;;;;;;;8.11;87.47;96226.84;5162948;23;20180;-87
2024/02/23 01:13:27;;;;;;;5.20;0.70;;;;;;;8.09;88.76;96220.97;5136534;23;20204;-86
2024/02/23 01:15:31;;;;;;;3.08;0.60;;;;;;;8.09;88.81;96225.34;5161980;23;20179;-86
2024/02/23 01:17:34;;;;;;;1.42;0.65;;;;;;;8.13;87.95;96222.38;5161961;23;20198;-86
2024/02/23 01:19:38;;;;;;;2.10;0.52;;;;;;;8.14;86.99;96230.97;5161641;23;20196;-86
2024/02/23 01:21:41;;;;;;;3.65;0.63;;;;;;;8.20;86.36;96241.63;5135527;23;20489;-86
2024/02/23 01:23:44;;;;;;;1.27;0.50;;;;;;;8.14;87.64;96246.53;5162268;23;20606;-86
2024/02/23 01:25:47;;;;;;;2.67;0.68;;;;;;;8.20;87.08;96241.63;5161128;23;20257;-86
2024/02/23 01:27:51;;;;;;;5.07;1.35;;;;;;;8.29;86.70;96235.63;5161850;23;20552;-85
2024/02/23 01:29:54;;;;;;;1.48;0.60;;;;;;;8.24;86.60;96237.81;5162652;23;20174;-85
2024/02/23 01:31:57;;;;;;;3.63;0.55;;;;;;;8.25;86.15;96223.84;5160983;23;20191;-85
2024/02/23 01:34:00;;;;;;;2.25;0.50;;;;;;;8.21;85.29;96219.06;5137418;23;20190;-85
2024/02/23 01:36:05;;;;;;;2.35;0.68;;;;;;;8.27;85.29;96232.34;5160064;23;20182;-85
2024/02/23 01:38:09;;;;;;;2.53;0.65;;;;;;;8.34;85.50;96236.00;5136758;23;20249;-85
2024/02/23 01:40:12;;;;;;;1.92;0.68;;;;;;;8.40;86.21;96238.06;5188682;22;20633;-85
2024/02/23 01:42:15;;;;;;;2.13;0.50;;;;;;;8.48;86.82;96241.63;5188235;22;20234;-85
2024/02/23 01:44:21;;;;;;;3.55;0.70;;;;;;;8.54;86.05;96258.47;5137278;23;20185;-85
2024/02/23 01:46:24;;;;;;;2.22;0.80;;;;;;;8.55;84.40;96241.88;5136099;23;20174;-86
2024/02/23 01:48:27;;;;;;;2.53;0.73;;;;;;;8.56;84.54;96240.94;5161706;23;20180;-85
2024/02/23 01:50:30;;;;;;;2.40;0.60;;;;;;;8.51;84.39;96241.34;5137505;23;20189;-85
2024/02/23 01:52:35;;;;;;;1.48;0.50;;;;;;;8.48;85.61;96244.22;5135649;23;20224;-85
2024/02/23 01:54:38;;;;;;;3.45;0.80;;;;;;;8.53;85.79;96243.81;5161495;23;20991;-85
2024/02/23 01:56:42;;;;;;;5.50;0.65;;;;;;;8.57;85.05;96243.41;5136119;23;20204;-85
2024/02/23 01:58:46;;;;;;;1.20;0.47;;;;;;;8.48;85.57;96240.81;5137710;23;20179;-85
2024/02/23 02:00:49;;;;;;;2.28;0.60;;;;;;;8.48;85.31;96244.22;5162304;23;20188;-85
2024/02/23 02:02:52;;;;;;;1.63;0.40;;;;;;;8.37;85.96;96243.53;5161894;23;20535;-85
2024/02/23 02:04:56;;;;;;;1.65;0.50;;;;;;;8.36;85.66;96244.50;5136108;23;20181;-85
2024/02/23 02:07:01;;;;;;;2.80;0.60;;;;;;;8.31;85.82;96244.09;5137022;23;20565;-84
2024/02/23 02:09:07;;;;;;;1.70;0.60;;;;;;;8.34;86.74;96237.81;5161781;23;20599;-85
2024/02/23 02:11:10;;;;;;;2.30;0.60;;;;;;;8.35;86.20;96242.88;5162754;23;20180;-85
2024/02/23 02:13:12;;;;;;;2.83;0.70;;;;;;;8.33;86.67;96233.56;5134371;23;20242;-85
2024/02/23 02:15:16;;;;;;;1.48;0.50;;;;;;;8.37;88.01;96253.91;5161400;23;20176;-85
2024/02/23 02:17:19;;;;;;;1.55;0.60;;;;;;;8.39;87.28;96252.03;5135298;23;20228;-85
2024/02/23 02:19:22;;;;;;;2.80;0.68;;;;;;;8.33;87.26;96247.38;5161430;23;20177;-85
2024/02/23 02:21:25;;;;;;;4.70;1.17;;;;;;;8.35;87.26;96242.88;5136878;23;20169;-85
2024/02/23 02:23:28;;;;;;;3.50;0.40;;;;;;;8.33;87.51;96254.31;5162063;23;20208;-85
2024/02/23 02:25:32;;;;;;;1.60;0.40;;;;;;;8.33;88.82;96259.53;5189331;22;20500;-85
2024/02/23 02:27:36;;;;;;;2.88;0.50;;;;;;;8.34;88.53;96263.78;5187333;22;20205;-85
2024/02/23 02:29:39;;;;;;;2.05;0.85;;;;;;;8.28;88.11;96265.13;5137137;23;20522;-85
2024/02/23 02:31:42;;;;;;;1.20;0.50;;;;;;;8.23;88.87;96262.13;5162214;23;20663;-85
2024/02/23 02:33:46;;;;;;;1.90;0.55;;;;;;;8.11;88.36;96268.38;5161486;23;20173;-84
2024/02/23 02:35:49;;;;;;;1.83;0.50;;;;;;;8.02;90.15;96265.75;5161663;23;20182;-84
2024/02/23 02:37:52;;;;;;;4.20;0.60;;;;;;;8.04;88.87;96269.88;5160830;23;20197;-85
2024/02/23 02:39:55;;;;;;;3.83;0.60;;;;;;;8.16;89.32;96268.00;5160876;23;20663;-85
2024/02/23 02:42:00;;;;;;;1.52;0.40;;;;;;;8.25;87.75;96278.38;5161627;23;20178;-85
2024/02/23 02:44:02;;;;;;;2.50;0.70;;;;;;;8.30;88.35;96281.41;5136351;23;20704;-85
2024/02/23 02:46:05;;;;;;;1.40;0.50;;;;;;;8.33;88.22;96283.75;5136384;23;20182;-85
2024/02/23 02:48:09;;;;;;;6.38;1.00;;;;;;;8.41;88.07;96289.06;5161802;23;20762;-84
2024/02/23 02:50:12;;;;;;;2.45;0.70;;;;;;;8.45;86.11;96285.25;5136969;23;20185;-85
2024/02/23 02:52:15;;;;;;;3.92;0.68;;;;;;;8.48;87.23;96280.59;5162283;23;20189;-85
2024/02/23 02:54:19;;;;;;;3.42;0.77;;;;;;;8.52;85.96;96275.94;5137025;23;20606;-85
2024/02/23 02:56:22;;;;;;;2.20;0.70;;;;;;;8.56;86.88;96267.72;5160081;23;20555;-85
2024/02/23 02:58:27;;;;;;;3.13;0.70;;;;;;;8.59;86.48;96267.47;5187562;22;20223;-86
2024/02/23 03:00:31;;;;;;;2.20;0.55;;;;;;;8.62;85.84;96271.56;5137118;23;20516;-87
2024/02/23 03:02:34;;;;;;;2.88;0.50;;;;;;;8.64;86.99;96269.66;5137125;23;20578;-87
2024/02/23 03:04:37;;;;;;;1.88;0.60;;;;;;;8.68;86.45;96278.81;5136932;23;20515;-87
2024/02/23 03:06:40;;;;;;;2.80;0.50;;;;;;;8.71;86.02;96287.16;5136034;23;20200;-87
2024/02/23 03:08:44;;;;;;;1.92;0.50;;;;;;;8.75;86.83;96272.94;5136173;23;20597;-87
2024/02/23 03:10:48;;;;;;;1.83;0.50;;;;;;;8.77;85.51;96285.78;5189216;22;20226;-87
2024/02/23 03:12:51;;;;;;;2.07;0.60;;;;;;;8.80;85.21;96291.53;5188376;22;20223;-87
2024/02/23 03:14:56;;;;;;;2.55;0.52;;;;;;;8.81;85.48;96285.38;5137220;23;20584;-87
2024/02/23 03:17:00;;;;;;;3.60;0.77;;;;;;;8.82;85.53;96287.00;5160555;23;20230;-87
2024/02/23 03:19:03;;;;;;;3.57;0.80;;;;;;;8.84;85.48;96284.25;5161811;23;20613;-86
2024/02/23 03:21:06;;;;;;;3.05;0.70;;;;;;;8.86;85.46;96280.56;5136658;23;20566;-87
2024/02/23 03:23:09;;;;;;;1.63;0.60;;;;;;;8.89;85.81;96290.69;5162868;23;20232;-87
2024/02/23 03:25:13;;;;;;;2.55;0.70;;;;;;;8.90;86.09;96291.50;5163913;23;20185;-86
2024/02/23 03:27:16;;;;;;;3.55;0.60;;;;;;;8.90;85.74;96284.53;5188903;22;20202;-87
2024/02/23 03:29:20;;;;;;;2.72;0.70;;;;;;;8.89;85.79;96284.69;5190534;22;20184;-87
2024/02/23 03:31:24;;;;;;;1.50;0.50;;;;;;;8.89;85.84;96269.91;5163091;23;20265;-86
2024/02/23 03:33:28;;;;;;;1.60;0.60;;;;;;;8.91;85.72;96269.75;5138125;23;20671;-87
2024/02/23 03:35:30;;;;;;;3.92;0.65;;;;;;;8.92;85.97;96279.22;5162945;23;20937;-86
2024/02/23 03:37:33;;;;;;;2.03;0.50;;;;;;;8.94;85.42;96291.09;5162350;23;20204;-87
2024/02/23 03:39:37;;;;;;;5.00;0.73;;;;;;;8.95;85.71;96293.56;5163929;23;20602;-87
2024/02/23 03:41:40;;;;;;;1.40;0.60;;;;;;;8.95;86.05;96283.16;5162044;23;20584;-86
2024/02/23 03:43:43;;;;;;;4.22;0.50;;;;;;;8.96;86.18;96274.41;5162232;23;20672;-87
2024/02/23 03:45:49;;;;;;;3.10;0.77;;;;;;;8.96;85.61;96261.41;5163502;22;20169;-87
2024/02/23 03:47:53;;;;;;;1.90;0.57;;;;;;;8.98;85.39;96256.88;5137591;23;20619;-87
2024/02/23 03:49:57;;;;;;;1.83;0.60;;;;;;;9.00;85.73;96277.53;5137954;23;20174;-86
2024/02/23 03:52:00;;;;;;;3.00;0.70;;;;;;;9.01;85.87;96285.19;5137595;23;20581;-87
2024/02/23 03:54:04;;;;;;;2.38;0.60;;;;;;;8.99;86.08;96284.53;5162644;23;20578;-87
2024/02/23 03:56:08;;;;;;;2.95;0.77;;;;;;;8.83;85.12;96288.66;5136425;23;20181;-86
2024/02/23 03:58:11;;;;;;;2.03;0.60;;;;;;;8.74;84.98;96301.66;5162486;23;20223;-87
2024/02/23 04:00:15;;;;;;;2.85;0.75;;;;;;;8.62;85.73;96303.56;5162768;23;21561;-86
2024/02/23 04:02:18;;;;;;;2.93;1.03;;;;;;;8.60;85.95;96300.28;5138173;23;20196;-86
2024/02/23 04:04:23;;;;;;;5.35;0.70;;;;;;;8.62;87.24;96320.94;5163674;23;20654;-86
2024/02/23 04:06:26;;;;;;;2.50;0.80;;;;;;;8.57;87.04;96323.94;5137154;23;20220;-87
2024/02/23 04:08:29;;;;;;;2.25;0.65;;;;;;;8.53;87.40;96311.34;5162767;23;20180;-86
2024/02/23 04:10:33;;;;;;;1.40;0.65;;;;;;;8.43;88.87;96299.31;5163563;23;20264;-86
2024/02/23 04:12:36;;;;;;;2.33;0.60;;;;;;;8.35;87.42;96291.41;5137905;23;20703;-86
2024/02/23 04:14:40;;;;;;;2.00;0.65;;;;;;;8.36;87.36;96293.00;5137032;23;20251;-86
2024/02/23 04:16:43;;;;;;;2.15;0.80;;;;;;;8.26;87.99;96285.22;5161720;23;20174;-86
2024/02/23 04:18:47;;;;;;;1.55;0.63;;;;;;;8.24;89.91;96297.53;5187715;22;20207;-87
2024/02/23 04:20:52;;;;;;;1.67;0.60;;;;;;;8.16;88.46;96304.34;5163171;23;20177;-86
2024/02/23 04:22:55;;;;;;;2.05;0.70;;;;;;;8.06;88.75;96293.91;5163476;23;20178;-87
2024/02/23 04:24:59;;;;;;;3.08;0.80;;;;;;;7.99;86.63;96285.00;5161485;23;20588;-87
2024/02/23 04:27:02;;;;;;;3.30;0.60;;;;;;;7.93;86.60;96297.69;5188950;22;20181;-87
2024/02/23 04:29:05;;;;;;;1.40;0.60;;;;;;;7.95;85.82;96298.38;5137430;23;20181;-86
2024/02/23 04:31:09;;;;;;;2.70;0.70;;;;;;;7.95;85.66;96307.94;5138335;23;20188;-87
2024/02/23 04:33:12;;;;;;;2.90;0.60;;;;;;;7.96;84.39;96312.19;5138386;23;20250;-86
2024/02/23 04:35:15;;;;;;;2.00;0.60;;;;;;;8.04;85.54;96313.16;5188309;22;20527;-86
2024/02/23 04:37:20;;;;;;;1.55;0.60;;;;;;;8.03;84.77;96309.75;5134545;23;20190;-87
2024/02/23 04:39:22;;;;;;;2.92;0.80;;;;;;;8.05;86.42;96307.03;5162517;23;20194;-86
2024/02/23 04:41:25;;;;;;;1.58;0.65;;;;;;;8.04;85.45;96303.63;5163026;23;20189;-87
2024/02/23 04:43:29;;;;;;;1.90;0.50;;;;;;;7.99;85.86;96297.97;5162464;23;20639;-87
2024/02/23 04:45:32;;;;;;;2.03;0.60;;;;;;;7.97;83.95;96281.72;5189260;22;20177;-86
2024/02/23 04:47:36;;;;;;;1.50;0.73;;;;;;;8.01;84.54;96287.47;5136416;23;20241;-87
2024/02/23 04:49:39;;;;;;;3.00;0.80;;;;;;;8.00;83.25;96304.81;5162129;23;20173;-86
2024/02/23 04:51:42;;;;;;;3.78;0.55;;;;;;;8.03;84.04;96314.94;5135534;23;20680;-87
2024/02/23 04:53:47;;;;;;;3.47;0.52;;;;;;;8.02;82.94;96302.09;5189164;22;20199;-87
2024/02/23 04:55:50;;;;;;;2.67;0.60;;;;;;;7.89;81.62;96298.91;5136581;23;20174;-87
2024/02/23 04:57:53;;;;;;;1.85;0.60;;;;;;;7.95;83.43;96300.97;5136022;23;20191;-87
2024/02/23 04:59:56;;;;;;;1.58;0.65;;;;;;;7.96;83.10;96300.84;5189953;22;20195;-87
2024/02/23 05:02:00;;;;;;;1.75;0.63;;;;;;;8.02;81.53;96291.72;5136028;23;20181;-87
2024/02/23 05:04:04;;;;;;;1.60;0.75;;;;;;;8.07;81.23;96292.13;5136982;23;20572;-87
2024/02/23 05:06:07;;;;;;;1.80;0.60;;;;;;;8.05;81.56;96294.84;5137277;23;20810;-87
2024/02/23 05:08:11;;;;;;;4.13;0.70;;;;;;;8.02;80.00;96289.13;5161206;23;20181;-87
2024/02/23 05:10:17;;;;;;;2.55;0.80;;;;;;;7.99;80.85;96284.19;5137091;23;20170;-87
2024/02/23 05:12:20;;;;;;;2.15;0.65;;;;;;;8.03;80.61;96288.19;5137021;23;20169;-87
2024/02/23 05:14:23;;;;;;;2.47;0.63;;;;;;;8.02;79.55;96273.53;5187790;22;20198;-87
2024/02/23 05:16:25;;;;;;;4.57;0.80;;;;;;;7.97;78.64;96273.94;5161542;23;20193;-87
2024/02/23 05:18:28;;;;;;;1.73;0.70;;;;;;;7.94;78.80;96280.34;5136957;23;20193;-87
2024/02/23 05:20:32;;;;;;;2.63;0.70;;;;;;;7.90;77.62;96282.41;5161752;23;20205;-87
2024/02/23 05:22:35;;;;;;;2.97;0.80;;;;;;;7.94;79.57;96283.78;5136954;23;20263;-87
2024/02/23 05:24:37;;;;;;;1.75;0.50;;;;;;;7.95;79.10;96282.00;5161614;23;20173;-87
2024/02/23 05:26:42;;;;;;;1.92;0.70;;;;;;;7.96;78.99;96284.47;5158494;23;20504;-87
2024/02/23 05:28:45;;;;;;;3.45;0.80;;;;;;;8.02;79.68;96282.13;5136903;23;20174;-87
2024/02/23 05:30:48;;;;;;;3.03;0.80;;;;;;;8.06;78.96;96295.69;5161594;23;20243;-87
2024/02/23 05:32:52;;;;;;;2.92;0.90;;;;;;;8.07;78.22;96295.56;5161972;23;20169;-87
2024/02/23 05:34:56;;;;;;;2.17;0.70;;;;;;;8.06;78.91;96295.69;5163172;23;20599;-87
2024/02/23 05:37:01;;;;;;;3.58;0.68;;;;;;;8.04;78.72;96298.41;5137007;23;20272;-87
2024/02/23 05:39:05;;;;;;;2.97;0.70;;;;;;;7.99;78.21;96304.94;5137338;23;20223;-87
2024/02/23 05:41:12;;;;;;;1.65;0.50;;;;;;;7.95;77.58;96303.56;5188903;22;20593;-87
2024/02/23 05:43:17;;;;;;;2.45;0.70;;;;;;;7.96;77.96;96296.63;5136230;23;20184;-93
2024/02/23 05:45:20;;;;;;;1.73;0.73;;;;;;;7.96;77.19;96300.84;5161469;23;20235;-88
2024/02/23 05:47:23;;;;;;;3.33;1.25;;;;;;;7.98;77.93;96306.75;5158959;23;20205;-92
2024/02/23 05:49:27;;;;;;;2.88;0.68;;;;;;;8.00;77.63;96312.59;5137079;23;20556;-93
2024/02/23 05:51:31;;;;;;;4.80;0.95;;;;;;;8.02;77.62;96308.09;5137798;23;20204;-93
2024/02/23 05:53:34;;;;;;;2.85;0.90;;;;;;;7.98;76.81;96298.97;5139915;23;20174;-92
2024/02/23 05:55:39;;;;;;;2.47;0.93;;;;;;;7.99;76.95;96297.97;5137858;23;20754;-92
2024/02/23 05:57:44;;;;;;;2.20;0.70;;;;;;;8.01;76.94;96300.44;5137377;23;20186;-93
2024/02/23 05:59:48;;;;;;;3.10;0.70;;;;;;;7.98;77.79;96309.34;5163066;23;20242;-92
2024/02/23 06:01:56;;;;;;;1.85;0.63;;;;;;;7.95;77.51;96311.34;5137523;23;20231;-92
2024/02/23 06:03:59;;;;;;;5.22;1.65;;;;;;;7.92;78.06;96310.81;5163499;23;20173;-90
2024/02/23 06:06:03;;;;;;;2.30;1.20;;;;;;;7.91;78.46;96316.94;5137365;23;20284;-91
2024/02/23 06:08:08;;;;;;;2.97;0.70;;;;;;;7.81;77.16;96311.72;5137573;23;20692;-93
2024/02/23 06:10:10;;;;;;;1.30;0.73;;;;;;;7.79;77.96;96312.84;5137280;23;20227;-92
2024/02/23 06:12:13;;;;;;;1.92;0.70;;;;;;;7.73;77.51;96316.75;5138028;23;20430;-92
2024/02/23 06:14:17;;;;;;;4.55;0.85;;;;;;;7.70;78.47;96317.03;5161687;23;20178;-88
2024/02/23 06:16:21;;;;;;;3.97;1.13;;;;;;;7.70;78.13;96316.22;5161493;23;20177;-88
2024/02/23 06:18:24;;;;;;;2.60;1.30;;;;;;;7.69;78.00;96317.97;5134107;23;20177;-88
2024/02/23 06:20:27;;;;;;;2.75;1.40;;;;;;;7.67;78.63;96316.47;5135360;23;20241;-89
2024/02/23 06:22:32;;;;;;;4.57;1.40;;;;;;;7.68;77.94;96312.91;5162007;23;20181;-91
2024/02/23 06:24:35;;;;;;;2.00;0.90;;;;;;;7.67;78.54;96319.88;5137359;23;20232;-88
2024/02/23 06:26:38;;;;;;;3.70;0.90;;;;;;;7.69;77.61;96337.91;5161256;23;20176;-89
2024/02/23 06:28:42;;;;;;;3.88;0.90;;;;;;;7.68;78.82;96342.28;5161283;23;20211;-83
2024/02/23 06:30:45;;;;;;;2.08;0.93;;;;;;;7.68;79.49;96347.47;5159407;23;20173;-82
2024/02/23 06:32:50;;;;;;;2.50;1.23;;;;;;;7.73;78.07;96340.09;5135536;23;20235;-83
2024/02/23 06:34:54;;;;;;;2.30;0.80;;;;;;;7.79;78.35;96336.19;5160559;23;20672;-82
2024/02/23 06:37:00;;;;;;;4.15;0.90;;;;;;;7.85;78.11;96339.06;5188070;22;20172;-83
2024/02/23 06:39:04;;;;;;;2.90;0.90;;;;;;;7.91;77.61;96337.69;5188392;22;20495;-82
2024/02/23 06:41:10;;;;;;;1.42;0.60;;;;;;;7.96;78.72;96351.13;5136060;23;20232;-82
2024/02/23 06:43:14;;;;;;;3.28;0.77;;;;;;;7.97;77.03;96351.00;5159417;23;20197;-82
2024/02/23 06:45:17;;;;;;;4.28;0.70;;;;;;;7.99;76.42;96346.47;5187832;22;20229;-82
2024/02/23 06:47:20;;;;;;;2.92;0.80;;;;;;;7.97;76.11;96344.00;5161352;23;20172;-83
2024/02/23 06:49:25;;;;;;;1.83;0.90;;;;;;;7.94;77.24;96327.06;5188433;22;20636;-82
2024/02/23 06:51:28;;;;;;;3.78;0.80;;;;;;;7.93;76.70;96331.44;5161644;23;20177;-82
2024/02/23 06:53:31;;;;;;;4.50;1.00;;;;;;;7.96;75.31;96338.16;5189080;22;20722;-82
2024/02/23 06:55:35;;;;;;;3.95;0.85;;;;;;;7.95;75.79;96333.91;5161393;23;20178;-82
2024/02/23 06:57:39;;;;;;;2.05;0.90;;;;;;;7.84;76.69;96328.81;5160379;23;20178;-86
2024/02/23 06:59:42;;;;;;;2.63;0.82;;;;;;;7.77;76.50;96330.28;5137940;23;20205;-83
2024/02/23 07:01:52;;;;;;;3.75;0.70;;;;;;;7.66;77.32;96328.59;5139040;23;20174;-83
2024/02/23 07:03:55;;;;;;;3.67;1.15;;;;;;;7.57;78.09;96334.56;5163379;23;20173;-82
2024/02/23 07:06:00;;;;;;;2.85;0.70;;;;;;;7.56;78.35;96324.31;5137379;23;20198;-82
2024/02/23 07:08:03;;;;;;;3.47;0.93;;;;;;;7.54;77.49;96321.03;5187597;22;20659;-82
2024/02/23 07:10:07;;;;;;;3.47;0.70;;;;;;;7.56;78.09;96325.16;5137713;23;20173;-82
2024/02/23 07:12:13;;;;;;;4.63;0.82;;;;;;;7.52;77.51;96316.00;5164007;23;20263;-81
2024/02/23 07:14:18;;;;;;;2.42;0.70;;;;;;;7.44;78.15;96322.75;5189203;22;20176;-81
2024/02/23 07:16:21;;;;;;;2.20;0.60;;;;;;;7.39;78.49;96324.94;5135494;23;20610;-82
2024/02/23 07:18:25;;;;;;;2.20;0.60;;;;;;;7.33;80.04;96330.63;5163178;23;20180;-81
2024/02/23 07:20:28;;;;;;;2.95;0.70;;;;;;;7.33;80.42;96335.81;5136119;23;20284;-82
2024/02/23 07:22:33;;;;;;;2.40;0.80;;;;;;;7.29;79.08;96338.78;5162633;23;20265;-83
2024/02/23 07:24:40;;;;;;;2.65;0.70;;;;;;;7.23;79.64;96334.94;5137659;23;20180;-83
2024/02/23 07:26:43;;;;;;;5.25;0.88;;;;;;;7.18;80.39;96331.91;5137111;23;20204;-83
2024/02/23 07:28:46;;;;;;;3.50;0.93;;;;;;;7.22;79.98;96346.25;5189504;22;20176;-83
2024/02/23 07:30:49;;;;;;;3.08;1.20;;;;;;;7.24;81.79;96338.34;5189722;22;20176;-81
2024/02/23 07:32:54;;;;;;;4.90;2.00;;;;;;;7.30;79.97;96340.44;5189725;22;20643;-81
2024/02/23 07:34:57;;;;;;;4.80;1.83;;;;;;;7.34;80.42;96337.47;5162303;23;20184;-82
2024/02/23 07:37:00;;;;;;;4.25;1.50;;;;;;;7.42;81.07;96340.22;5137592;23;20244;-87
2024/02/23 07:39:05;;;;;;;2.38;1.35;;;;;;;7.51;80.86;96339.47;5162990;23;20179;-87
2024/02/23 07:41:08;;;;;;;8.38;4.38;;;;;;;7.57;80.31;96342.34;5163428;23;20607;-88
2024/02/23 07:43:12;;;;;;;4.22;1.20;;;;;;;7.58;80.32;96345.78;5163688;23;20214;-89
2024/02/23 07:45:16;;;;;;;3.88;1.27;;;;;;;7.65;79.43;96346.88;5137552;23;20709;-87
2024/02/23 07:47:20;;;;;;;7.07;0.93;;;;;;;7.69;80.90;96353.47;5161508;23;20176;-86
2024/02/23 07:49:23;;;;;;;2.00;0.90;;;;;;;7.79;79.92;96351.75;5162752;23;20717;-88
2024/02/23 07:51:27;;;;;;;3.25;0.98;;;;;;;7.92;80.78;96354.91;5135871;23;20178;-85
2024/02/23 07:53:31;;;;;;;3.15;1.00;;;;;;;8.07;79.27;96355.25;5161772;23;20176;-88
2024/02/23 07:55:35;;;;;;;3.90;0.90;;;;;;;8.20;80.73;96355.88;5137494;23;20174;-86
2024/02/23 07:57:39;;;;;;;1.77;0.90;;;;;;;8.31;80.00;96367.91;5135843;23;20232;-86
2024/02/23 07:59:42;;;;;;;3.05;0.70;;;;;;;8.39;80.79;96366.31;5163040;23;20239;-88
2024/02/23 08:01:46;;;;;;;2.78;0.90;;;;;;;8.43;80.55;96370.25;5138397;23;20850;-87
2024/02/23 08:03:50;;;;;;;3.30;0.88;;;;;;;8.48;80.03;96370.69;5134776;23;20182;-85
2024/02/23 08:05:53;;;;;;;1.65;0.70;;;;;;;8.52;80.36;96372.06;5161900;23;20221;-86
2024/02/23 08:07:56;;;;;;;1.85;0.80;;;;;;;8.57;80.65;96369.91;5136132;23;20176;-86
2024/02/23 08:10:00;;;;;;;2.55;0.80;;;;;;;8.61;80.69;96366.84;5162852;23;20641;-86
2024/02/23 08:12:06;;;;;;;2.75;0.70;;;;;;;8.66;80.67;96374.25;5137879;23;20236;-89
2024/02/23 08:14:09;;;;;;;2.40;0.68;;;;;;;8.69;80.29;96376.59;5164332;22;20579;-87
2024/02/23 08:16:12;;;;;;;2.33;1.25;;;;;;;8.72;80.51;96369.34;5163197;23;20173;-87
2024/02/23 08:18:15;;;;;;;2.95;0.63;;;;;;;8.75;79.37;96376.03;5165060;23;20182;-87
2024/02/23 08:20:21;;;;;;;2.28;0.85;;;;;;;8.80;81.39;96366.09;5162195;23;20612;-87
2024/02/23 08:22:24;;;;;;;2.38;0.77;;;;;;;8.82;80.80;96372.75;5164884;22;21020;-87
2024/02/23 08:24:28;;;;;;;2.00;0.88;;;;;;;8.80;79.92;96368.69;5137832;23;20269;-87
2024/02/23 08:26:31;;;;;;;1.95;0.50;;;;;;;8.78;79.54;96362.78;5163014;22;20177;-88
2024/02/23 08:28:36;;;;;;;2.28;0.88;;;;;;;8.78;79.80;96365.38;5163202;23;20178;-87
2024/02/23 08:30:39;;;;;;;2.80;1.10;;;;;;;8.78;80.26;96373.16;5164406;23;21142;-88
2024/02/23 08:32:42;;;;;;;3.08;0.80;;;;;;;8.80;79.98;96376.47;5138304;23;20250;-90
2024/02/23 08:34:46;;;;;;;2.10;0.90;;;;;;;8.84;80.10;96375.22;5162721;23;20185;-88
2024/02/23 08:36:49;;;;;;;2.33;1.00;;;;;;;8.92;80.11;96371.81;5162422;23;20209;-92
2024/02/23 08:38:53;;;;;;;1.92;0.73;;;;;;;8.95;79.46;96387.13;5163635;23;20554;-90
2024/02/23 08:40:57;;;;;;;3.45;1.30;;;;;;;8.96;79.05;96383.59;5161165;23;20287;-89
2024/02/23 08:43:01;;;;;;;1.80;0.70;;;;;;;8.98;80.34;96376.47;5163381;23;20614;-88
2024/02/23 08:45:07;;;;;;;2.00;0.70;;;;;;;9.03;79.65;96376.88;5136762;23;20256;-89
2024/02/23 08:47:10;;;;;;;2.95;1.05;;;;;;;9.08;79.79;96382.50;5163402;23;20619;-89
2024/02/23 08:49:13;;;;;;;2.58;0.80;;;;;;;9.14;79.81;96378.50;5136664;23;20182;-89
2024/02/23 08:51:16;;;;;;;2.90;1.67;;;;;;;9.20;79.55;96380.56;5161351;23;20184;-90
2024/02/23 08:53:19;;;;;;;4.70;1.03;;;;;;;9.26;79.69;96375.63;5138487;23;20248;-91
2024/02/23 08:55:23;;;;;;;4.18;0.80;;;;;;;9.27;79.24;96377.25;5138507;23;20580;-89
2024/02/23 08:57:27;;;;;;;5.00;1.10;;;;;;;9.30;79.22;96379.59;5137318;23;20181;-88
2024/02/23 08:59:30;;;;;;;3.10;0.83;;;;;;;9.33;78.95;96387.13;5138140;23;20174;-88
2024/02/23 09:01:36;;;;;;;3.17;1.15;;;;;;;9.39;79.58;96373.56;5163380;23;20620;-89
2024/02/23 09:03:39;;;;;;;3.15;0.93;;;;;;;9.42;78.89;96375.88;5164056;23;20215;-89
2024/02/23 09:05:42;;;;;;;2.10;0.80;;;;;;;9.39;77.21;96376.16;5137492;23;20198;-88
2024/02/23 09:07:45;;;;;;;2.20;0.90;;;;;;;9.33;77.81;96376.72;5163870;22;20640;-87
2024/02/23 09:09:48;;;;;;;1.93;0.73;;;;;;;9.29;79.02;96377.97;5165195;23;20170;-88
2024/02/23 09:11:51;;;;;;;1.80;0.70;;;;;;;9.21;78.54;96371.81;5166618;23;20936;-88
2024/02/23 09:13:55;;;;;;;8.13;4.05;;;;;;;9.18;78.99;96372.06;5165097;23;20177;-87
2024/02/23 09:15:58;;;;;;;6.50;3.60;;;;;;;9.13;78.25;96363.88;5165375;23;20603;-86
2024/02/23 09:18:03;;;;;;;2.40;0.73;;;;;;;9.22;79.51;96378.66;5165459;23;20579;-87
2024/02/23 09:20:07;;;;;;;3.60;1.20;;;;;;;9.27;78.92;96385.06;5165818;23;20600;-85
2024/02/23 09:22:11;;;;;;;4.10;2.50;;;;;;;9.14;77.77;96389.75;5140364;23;20198;-86
2024/02/23 09:24:14;;;;;;;3.03;1.15;;;;;;;9.07;77.26;96386.03;5163607;23;20635;-88
2024/02/23 09:26:17;;;;;;;2.70;0.95;;;;;;;9.12;77.79;96394.25;5162209;23;20264;-88
2024/02/23 09:28:21;;;;;;;4.50;1.00;;;;;;;9.08;78.45;96392.06;5163417;23;20169;-89
2024/02/23 09:30:25;;;;;;;3.90;0.90;;;;;;;9.03;77.97;96389.88;5162594;23;20178;-89
2024/02/23 09:32:28;;;;;;;3.38;0.80;;;;;;;9.03;77.25;96392.47;5163774;23;20922;-86
2024/02/23 09:34:33;;;;;;;3.67;1.30;;;;;;;9.04;78.33;96395.91;5163465;23;20588;-89
2024/02/23 09:36:37;;;;;;;2.97;0.85;;;;;;;9.03;77.82;96392.47;5161851;23;20672;-86
2024/02/23 09:38:40;;;;;;;1.73;0.82;;;;;;;9.00;77.44;96404.94;5136963;23;20709;-87
2024/02/23 09:40:42;;;;;;;2.88;0.88;;;;;;;8.95;78.11;96401.94;5136215;23;20678;-87
2024/02/23 09:42:52;;;;;;;2.10;0.70;;;;;;;9.00;78.00;96400.53;5137532;23;20228;-87
2024/02/23 09:44:59;;;;;;;2.17;1.25;;;;;;;9.11;78.09;96408.22;5158995;23;20180;-91
2024/02/23 09:47:08;;;;;;;3.33;0.80;;;;;;;9.12;76.64;96399.44;5161700;23;20161;-85
2024/02/23 09:49:13;;;;;;;3.08;0.80;;;;;;;9.25;77.83;96402.59;5137691;23;20174;-87